sensor_id;sensor_type;location;lat;lon;timestamp;P1;durP1;ratioP1;P2;durP2;ratioP2
10888;SDS011;5497;51.388;6.780;2023-04-24T09:25:32;30.53;;;7.03;;
10888;SDS011;5497;51.388;6.780;2023-04-24T09:28:01;28.53;;;6.57;;
10888;SDS011;5497;51.388;6.780;2023-04-24T09:30:29;29.97;;;7.90;;
10888;SDS011;5497;51.388;6.780;2023-04-24T09:33:10;33.87;;;8.10;;
10888;SDS011;5497;51.388;6.780;2023-04-24T09:35:43;30.53;;;7.43;;
10888;SDS011;5497;51.388;6.780;2023-04-24T09:38:29;33.60;;;8.80;;
10888;SDS011;5497;51.388;6.780;2023-04-24T09:41:00;31.40;;;8.80;;
10888;SDS011;5497;51.388;6.780;2023-04-24T09:43:29;33.60;;;8.47;;
10888;SDS011;5497;51.388;6.780;2023-04-24T09:45:56;25.27;;;6.47;;
10888;SDS011;5497;51.388;6.780;2023-04-24T09:48:31;29.30;;;6.90;;
10888;SDS011;5497;51.388;6.780;2023-04-24T09:51:00;36.43;;;8.63;;
10888;SDS011;5497;51.388;6.780;2023-04-24T09:53:28;36.13;;;8.57;;
10888;SDS011;5497;51.388;6.780;2023-04-24T09:56:06;29.00;;;8.80;;
10888;SDS011;5497;51.388;6.780;2023-04-24T09:58:34;36.77;;;9.27;;
10888;SDS011;5497;51.388;6.780;2023-04-24T10:01:02;28.87;;;8.03;;
10888;SDS011;5497;51.388;6.780;2023-04-24T10:03:30;38.07;;;10.13;;
10888;SDS011;5497;51.388;6.780;2023-04-24T10:06:01;31.10;;;8.47;;
10888;SDS011;5497;51.388;6.780;2023-04-24T10:08:34;30.60;;;6.83;;
10888;SDS011;5497;51.388;6.780;2023-04-24T10:11:03;27.13;;;7.40;;
10888;SDS011;5497;51.388;6.780;2023-04-24T10:13:31;21.77;;;6.63;;
10888;SDS011;5497;51.388;6.780;2023-04-24T10:15:59;26.60;;;6.10;;
10888;SDS011;5497;51.388;6.780;2023-04-24T10:18:28;30.10;;;7.13;;
10888;SDS011;5497;51.388;6.780;2023-04-24T10:20:57;29.73;;;6.93;;
10888;SDS011;5497;51.388;6.780;2023-04-24T10:23:28;28.00;;;6.90;;
10888;SDS011;5497;51.388;6.780;2023-04-24T10:25:56;24.23;;;6.50;;
10888;SDS011;5497;51.388;6.780;2023-04-24T10:28:25;24.63;;;5.90;;
10888;SDS011;5497;51.388;6.780;2023-04-24T10:30:54;45.30;;;9.73;;
10888;SDS011;5497;51.388;6.780;2023-04-24T10:33:22;28.33;;;6.67;;
10888;SDS011;5497;51.388;6.780;2023-04-24T10:35:50;33.77;;;7.20;;
10888;SDS011;5497;51.388;6.780;2023-04-24T10:38:22;29.40;;;7.33;;
10888;SDS011;5497;51.388;6.780;2023-04-24T10:40:51;29.73;;;6.87;;
10888;SDS011;5497;51.388;6.780;2023-04-24T10:43:23;31.80;;;6.97;;
10888;SDS011;5497;51.388;6.780;2023-04-24T10:46:02;25.90;;;5.70;;
10888;SDS011;5497;51.388;6.780;2023-04-24T10:48:31;30.00;;;6.70;;
10888;SDS011;5497;51.388;6.780;2023-04-24T10:50:58;36.07;;;7.63;;
10888;SDS011;5497;51.388;6.780;2023-04-24T10:53:27;32.93;;;6.87;;
10888;SDS011;5497;51.388;6.780;2023-04-24T10:56:02;23.30;;;5.83;;
10888;SDS011;5497;51.388;6.780;2023-04-24T10:58:39;27.13;;;6.90;;
10888;SDS011;5497;51.388;6.780;2023-04-24T11:01:13;33.20;;;7.23;;
10888;SDS011;5497;51.388;6.780;2023-04-24T11:03:51;26.10;;;6.17;;
10888;SDS011;5497;51.388;6.780;2023-04-24T11:06:28;33.37;;;7.23;;
10888;SDS011;5497;51.388;6.780;2023-04-24T11:09:01;25.37;;;6.50;;
10888;SDS011;5497;51.388;6.780;2023-04-24T11:11:31;35.33;;;8.43;;
10888;SDS011;5497;51.388;6.780;2023-04-24T11:14:07;31.43;;;7.93;;
10888;SDS011;5497;51.388;6.780;2023-04-24T11:16:37;25.87;;;6.37;;
10888;SDS011;5497;51.388;6.780;2023-04-24T11:19:18;22.07;;;5.90;;
10888;SDS011;5497;51.388;6.780;2023-04-24T11:21:54;31.40;;;6.93;;
10888;SDS011;5497;51.388;6.780;2023-04-24T11:24:30;21.47;;;4.93;;
10888;SDS011;5497;51.388;6.780;2023-04-24T11:27:18;24.43;;;5.43;;
10888;SDS011;5497;51.388;6.780;2023-04-24T11:29:58;18.40;;;4.90;;
10888;SDS011;5497;51.388;6.780;2023-04-24T11:32:28;21.77;;;5.73;;
10888;SDS011;5497;51.388;6.780;2023-04-24T11:34:58;23.43;;;5.50;;
10888;SDS011;5497;51.388;6.780;2023-04-24T11:37:29;25.00;;;5.83;;
10888;SDS011;5497;51.388;6.780;2023-04-24T11:40:01;18.90;;;4.83;;
10888;SDS011;5497;51.388;6.780;2023-04-24T11:42:35;22.37;;;6.00;;
10888;SDS011;5497;51.388;6.780;2023-04-24T11:45:11;17.83;;;4.83;;
10888;SDS011;5497;51.388;6.780;2023-04-24T11:47:47;22.27;;;5.30;;
10888;SDS011;5497;51.388;6.780;2023-04-24T11:50:20;24.50;;;5.80;;
10888;SDS011;5497;51.388;6.780;2023-04-24T11:52:51;18.73;;;5.43;;
10888;SDS011;5497;51.388;6.780;2023-04-24T11:55:24;22.00;;;5.33;;
10888;SDS011;5497;51.388;6.780;2023-04-24T11:58:08;17.97;;;5.17;;
10888;SDS011;5497;51.388;6.780;2023-04-24T12:00:37;18.43;;;5.03;;
10888;SDS011;5497;51.388;6.780;2023-04-24T12:03:06;21.97;;;4.90;;
10888;SDS011;5497;51.388;6.780;2023-04-24T12:05:36;26.10;;;6.23;;
10888;SDS011;5497;51.388;6.780;2023-04-24T12:08:07;18.53;;;4.67;;
10888;SDS011;5497;51.388;6.780;2023-04-24T12:10:38;18.17;;;4.60;;
10888;SDS011;5497;51.388;6.780;2023-04-24T12:13:09;15.47;;;4.13;;
10888;SDS011;5497;51.388;6.780;2023-04-24T12:15:47;26.87;;;5.13;;
10888;SDS011;5497;51.388;6.780;2023-04-24T12:18:25;24.33;;;5.20;;
10888;SDS011;5497;51.388;6.780;2023-04-24T12:21:24;18.87;;;4.47;;
10888;SDS011;5497;51.388;6.780;2023-04-24T12:23:57;18.03;;;4.33;;
10888;SDS011;5497;51.388;6.780;2023-04-24T12:26:30;20.23;;;4.30;;
10888;SDS011;5497;51.388;6.780;2023-04-24T12:29:03;14.67;;;3.80;;
10888;SDS011;5497;51.388;6.780;2023-04-24T12:31:37;16.77;;;4.13;;
10888;SDS011;5497;51.388;6.780;2023-04-24T12:34:16;21.93;;;5.67;;
10888;SDS011;5497;51.388;6.780;2023-04-24T12:36:48;16.97;;;4.10;;
10888;SDS011;5497;51.388;6.780;2023-04-24T12:39:19;20.73;;;4.70;;
10888;SDS011;5497;51.388;6.780;2023-04-24T12:41:55;23.60;;;4.77;;
10888;SDS011;5497;51.388;6.780;2023-04-24T12:44:29;18.20;;;4.37;;
10888;SDS011;5497;51.388;6.780;2023-04-24T12:47:02;18.47;;;4.17;;
10888;SDS011;5497;51.388;6.780;2023-04-24T12:49:30;18.07;;;4.07;;
10888;SDS011;5497;51.388;6.780;2023-04-24T12:51:59;18.43;;;4.27;;
10888;SDS011;5497;51.388;6.780;2023-04-24T12:54:31;22.90;;;5.43;;
10888;SDS011;5497;51.388;6.780;2023-04-24T12:57:00;20.93;;;4.47;;
10888;SDS011;5497;51.388;6.780;2023-04-24T12:59:28;15.27;;;3.67;;
10888;SDS011;5497;51.388;6.780;2023-04-24T13:01:58;20.93;;;4.13;;
10888;SDS011;5497;51.388;6.780;2023-04-24T13:04:37;18.23;;;4.63;;
10888;SDS011;5497;51.388;6.780;2023-04-24T13:07:05;16.60;;;4.00;;
10888;SDS011;5497;51.388;6.780;2023-04-24T13:09:34;17.40;;;4.30;;
10888;SDS011;5497;51.388;6.780;2023-04-24T13:12:02;23.57;;;4.87;;
10888;SDS011;5497;51.388;6.780;2023-04-24T13:14:31;21.33;;;4.57;;
10888;SDS011;5497;51.388;6.780;2023-04-24T13:46:59;16.87;;;3.87;;
10888;SDS011;5497;51.388;6.780;2023-04-24T13:49:36;17.83;;;4.30;;
10888;SDS011;5497;51.388;6.780;2023-04-24T13:52:04;18.03;;;3.87;;
10888;SDS011;5497;51.388;6.780;2023-04-24T13:54:34;22.57;;;4.30;;
10888;SDS011;5497;51.388;6.780;2023-04-24T13:57:03;17.57;;;3.97;;
10888;SDS011;5497;51.388;6.780;2023-04-24T13:59:31;13.33;;;3.30;;
10888;SDS011;5497;51.388;6.780;2023-04-24T14:01:59;20.40;;;4.03;;
10888;SDS011;5497;51.388;6.780;2023-04-24T14:04:27;17.40;;;3.97;;
10888;SDS011;5497;51.388;6.780;2023-04-24T14:06:55;15.77;;;3.60;;
10888;SDS011;5497;51.388;6.780;2023-04-24T14:09:23;19.23;;;4.43;;
10888;SDS011;5497;51.388;6.780;2023-04-24T14:11:52;14.40;;;3.43;;
10888;SDS011;5497;51.388;6.780;2023-04-24T14:14:20;25.17;;;6.00;;
10888;SDS011;5497;51.388;6.780;2023-04-24T14:16:47;20.93;;;5.30;;
10888;SDS011;5497;51.388;6.780;2023-04-24T14:19:14;21.43;;;4.73;;
10888;SDS011;5497;51.388;6.780;2023-04-24T14:21:42;24.83;;;5.63;;
10888;SDS011;5497;51.388;6.780;2023-04-24T14:24:09;18.63;;;4.53;;
10888;SDS011;5497;51.388;6.780;2023-04-24T14:26:40;19.30;;;4.40;;
10888;SDS011;5497;51.388;6.780;2023-04-24T14:29:08;22.17;;;4.50;;
10888;SDS011;5497;51.388;6.780;2023-04-24T14:31:35;20.93;;;4.93;;
10888;SDS011;5497;51.388;6.780;2023-04-24T14:34:02;19.17;;;4.20;;
10888;SDS011;5497;51.388;6.780;2023-04-24T14:36:35;17.80;;;4.07;;
10888;SDS011;5497;51.388;6.780;2023-04-24T14:39:04;19.47;;;4.13;;
10888;SDS011;5497;51.388;6.780;2023-04-24T14:41:32;19.10;;;4.23;;
10888;SDS011;5497;51.388;6.780;2023-04-24T14:44:01;22.97;;;4.97;;
